sensor_id;sensor_type;location;lat;lon;timestamp;temperature;humidity
31133;DHT22;17779;50.942;4.026;2022-11-20T00:00:52;5.10;99.90
31133;DHT22;17779;50.942;4.026;2022-11-20T00:03:18;5.30;99.90
31133;DHT22;17779;50.942;4.026;2022-11-20T00:05:44;5.30;99.90
31133;DHT22;17779;50.942;4.026;2022-11-20T00:08:10;5.30;99.90
31133;DHT22;17779;50.942;4.026;2022-11-20T00:10:36;5.30;99.90
31133;DHT22;17779;50.942;4.026;2022-11-20T00:13:01;5.30;99.90
31133;DHT22;17779;50.942;4.026;2022-11-20T00:15:27;5.30;99.90
31133;DHT22;17779;50.942;4.026;2022-11-20T00:17:52;5.20;99.90
31133;DHT22;17779;50.942;4.026;2022-11-20T00:20:18;5.10;99.90
31133;DHT22;17779;50.942;4.026;2022-11-20T00:22:44;5.10;99.90
31133;DHT22;17779;50.942;4.026;2022-11-20T00:25:09;5.20;99.90
31133;DHT22;17779;50.942;4.026;2022-11-20T00:27:35;5.10;99.90
31133;DHT22;17779;50.942;4.026;2022-11-20T00:30:01;4.90;99.90
31133;DHT22;17779;50.942;4.026;2022-11-20T00:32:26;5.00;99.90
31133;DHT22;17779;50.942;4.026;2022-11-20T00:34:52;5.10;99.90
31133;DHT22;17779;50.942;4.026;2022-11-20T00:37:17;5.20;99.90
31133;DHT22;17779;50.942;4.026;2022-11-20T00:39:43;5.10;99.90
31133;DHT22;17779;50.942;4.026;2022-11-20T00:42:08;4.90;99.90
31133;DHT22;17779;50.942;4.026;2022-11-20T00:44:34;5.10;99.90
31133;DHT22;17779;50.942;4.026;2022-11-20T00:47:00;5.10;99.90
31133;DHT22;17779;50.942;4.026;2022-11-20T00:49:25;5.20;99.90
31133;DHT22;17779;50.942;4.026;2022-11-20T00:51:51;5.20;99.90
31133;DHT22;17779;50.942;4.026;2022-11-20T00:54:17;5.30;99.90
31133;DHT22;17779;50.942;4.026;2022-11-20T00:56:43;5.50;99.90
31133;DHT22;17779;50.942;4.026;2022-11-20T00:59:08;5.50;99.90
31133;DHT22;17779;50.942;4.026;2022-11-20T01:01:34;5.30;99.90
31133;DHT22;17779;50.942;4.026;2022-11-20T01:04:01;5.30;99.90
31133;DHT22;17779;50.942;4.026;2022-11-20T01:06:27;5.20;99.90
31133;DHT22;17779;50.942;4.026;2022-11-20T01:08:55;5.10;99.90
31133;DHT22;17779;50.942;4.026;2022-11-20T01:11:39;5.10;99.90
31133;DHT22;17779;50.942;4.026;2022-11-20T01:14:06;5.10;99.90
31133;DHT22;17779;50.942;4.026;2022-11-20T01:16:33;5.00;99.90
31133;DHT22;17779;50.942;4.026;2022-11-20T01:18:59;5.20;99.90
31133;DHT22;17779;50.942;4.026;2022-11-20T01:21:29;5.40;99.90
31133;DHT22;17779;50.942;4.026;2022-11-20T01:23:55;5.50;99.90
31133;DHT22;17779;50.942;4.026;2022-11-20T01:26:22;5.50;99.90
31133;DHT22;17779;50.942;4.026;2022-11-20T01:28:48;5.50;99.90
31133;DHT22;17779;50.942;4.026;2022-11-20T01:31:28;5.50;99.90
31133;DHT22;17779;50.942;4.026;2022-11-20T01:33:55;5.40;99.90
31133;DHT22;17779;50.942;4.026;2022-11-20T01:36:22;5.30;99.90
31133;DHT22;17779;50.942;4.026;2022-11-20T01:38:50;5.30;99.90
31133;DHT22;17779;50.942;4.026;2022-11-20T01:41:16;5.10;99.90
31133;DHT22;17779;50.942;4.026;2022-11-20T01:44:01;5.20;99.90
31133;DHT22;17779;50.942;4.026;2022-11-20T01:46:27;5.40;99.90
31133;DHT22;17779;50.942;4.026;2022-11-20T01:51:24;5.20;99.90
31133;DHT22;17779;50.942;4.026;2022-11-20T01:53:51;5.50;99.90
31133;DHT22;17779;50.942;4.026;2022-11-20T01:56:19;5.50;99.90
31133;DHT22;17779;50.942;4.026;2022-11-20T01:58:47;5.40;99.90
31133;DHT22;17779;50.942;4.026;2022-11-20T02:01:15;5.40;99.90
31133;DHT22;17779;50.942;4.026;2022-11-20T02:03:42;5.60;99.90
31133;DHT22;17779;50.942;4.026;2022-11-20T02:06:16;5.70;99.90
31133;DHT22;17779;50.942;4.026;2022-11-20T02:08:44;5.90;99.90
31133;DHT22;17779;50.942;4.026;2022-11-20T02:11:11;5.60;99.90
31133;DHT22;17779;50.942;4.026;2022-11-20T02:13:39;5.30;99.90
31133;DHT22;17779;50.942;4.026;2022-11-20T02:16:15;5.20;99.90
31133;DHT22;17779;50.942;4.026;2022-11-20T02:18:41;5.50;99.90
31133;DHT22;17779;50.942;4.026;2022-11-20T02:21:19;5.60;99.90
31133;DHT22;17779;50.942;4.026;2022-11-20T02:26:32;5.60;99.90
31133;DHT22;17779;50.942;4.026;2022-11-20T02:29:00;5.70;99.90
31133;DHT22;17779;50.942;4.026;2022-11-20T02:31:26;5.60;99.90
31133;DHT22;17779;50.942;4.026;2022-11-20T02:33:56;5.50;99.90
31133;DHT22;17779;50.942;4.026;2022-11-20T02:36:24;5.20;99.90
31133;DHT22;17779;50.942;4.026;2022-11-20T02:38:51;5.00;99.90
31133;DHT22;17779;50.942;4.026;2022-11-20T02:41:19;5.10;99.90
31133;DHT22;17779;50.942;4.026;2022-11-20T02:43:45;5.20;99.90
31133;DHT22;17779;50.942;4.026;2022-11-20T02:46:10;5.10;99.90
31133;DHT22;17779;50.942;4.026;2022-11-20T02:48:39;5.40;99.90
31133;DHT22;17779;50.942;4.026;2022-11-20T02:51:04;5.30;99.90
31133;DHT22;17779;50.942;4.026;2022-11-20T02:53:30;5.10;99.90
31133;DHT22;17779;50.942;4.026;2022-11-20T02:55:55;4.90;99.90
31133;DHT22;17779;50.942;4.026;2022-11-20T02:58:21;4.90;99.90
31133;DHT22;17779;50.942;4.026;2022-11-20T03:00:47;5.00;99.90
31133;DHT22;17779;50.942;4.026;2022-11-20T03:03:12;5.00;99.90
31133;DHT22;17779;50.942;4.026;2022-11-20T03:05:39;5.00;99.90
31133;DHT22;17779;50.942;4.026;2022-11-20T03:08:04;5.20;99.90
31133;DHT22;17779;50.942;4.026;2022-11-20T03:10:30;5.30;99.90
31133;DHT22;17779;50.942;4.026;2022-11-20T03:12:56;5.30;99.90
31133;DHT22;17779;50.942;4.026;2022-11-20T03:15:24;5.20;99.90
31133;DHT22;17779;50.942;4.026;2022-11-20T03:17:53;5.30;99.90
31133;DHT22;17779;50.942;4.026;2022-11-20T03:20:19;5.00;99.90
31133;DHT22;17779;50.942;4.026;2022-11-20T03:22:45;5.10;99.90
31133;DHT22;17779;50.942;4.026;2022-11-20T03:25:10;5.10;99.90
31133;DHT22;17779;50.942;4.026;2022-11-20T03:27:37;5.20;99.90
31133;DHT22;17779;50.942;4.026;2022-11-20T03:30:03;5.00;99.90
31133;DHT22;17779;50.942;4.026;2022-11-20T03:32:29;5.00;99.90
31133;DHT22;17779;50.942;4.026;2022-11-20T03:37:25;4.70;99.90
31133;DHT22;17779;50.942;4.026;2022-11-20T03:39:50;4.80;99.90
31133;DHT22;17779;50.942;4.026;2022-11-20T03:42:16;4.80;99.90
31133;DHT22;17779;50.942;4.026;2022-11-20T03:45:00;4.80;99.90
31133;DHT22;17779;50.942;4.026;2022-11-20T03:47:26;4.80;99.90
31133;DHT22;17779;50.942;4.026;2022-11-20T03:49:51;4.90;99.90
31133;DHT22;17779;50.942;4.026;2022-11-20T03:52:17;4.80;99.90
31133;DHT22;17779;50.942;4.026;2022-11-20T03:54:42;5.00;99.90
31133;DHT22;17779;50.942;4.026;2022-11-20T03:57:09;5.30;99.90
31133;DHT22;17779;50.942;4.026;2022-11-20T03:59:36;5.30;99.90
31133;DHT22;17779;50.942;4.026;2022-11-20T04:02:01;5.10;99.90
31133;DHT22;17779;50.942;4.026;2022-11-20T04:04:28;5.10;99.90
31133;DHT22;17779;50.942;4.026;2022-11-20T04:06:53;5.10;99.90
31133;DHT22;17779;50.942;4.026;2022-11-20T04:09:19;5.10;99.90
31133;DHT22;17779;50.942;4.026;2022-11-20T04:11:45;4.90;99.90
31133;DHT22;17779;50.942;4.026;2022-11-20T04:14:14;4.80;99.90
31133;DHT22;17779;50.942;4.026;2022-11-20T04:16:40;4.70;99.90
31133;DHT22;17779;50.942;4.026;2022-11-20T04:19:08;4.90;99.90
31133;DHT22;17779;50.942;4.026;2022-11-20T04:21:35;5.00;99.90
31133;DHT22;17779;50.942;4.026;2022-11-20T04:24:01;4.80;99.90
31133;DHT22;17779;50.942;4.026;2022-11-20T04:26:27;4.80;99.90
31133;DHT22;17779;50.942;4.026;2022-11-20T04:28:54;4.80;99.90
31133;DHT22;17779;50.942;4.026;2022-11-20T04:31:25;4.70;99.90
31133;DHT22;17779;50.942;4.026;2022-11-20T04:33:51;4.80;99.90
31133;DHT22;17779;50.942;4.026;2022-11-20T04:36:21;4.80;99.90
31133;DHT22;17779;50.942;4.026;2022-11-20T04:38:52;4.70;99.90
31133;DHT22;17779;50.942;4.026;2022-11-20T04:41:19;4.90;99.90
31133;DHT22;17779;50.942;4.026;2022-11-20T04:43:48;4.90;99.90
31133;DHT22;17779;50.942;4.026;2022-11-20T04:46:16;5.00;99.90
31133;DHT22;17779;50.942;4.026;2022-11-20T04:48:44;5.00;99.90
31133;DHT22;17779;50.942;4.026;2022-11-20T04:51:11;4.90;99.90
31133;DHT22;17779;50.942;4.026;2022-11-20T04:53:37;4.90;99.90
31133;DHT22;17779;50.942;4.026;2022-11-20T04:56:04;5.00;99.90
31133;DHT22;17779;50.942;4.026;2022-11-20T04:58:31;5.20;99.90
31133;DHT22;17779;50.942;4.026;2022-11-20T05:01:00;5.40;99.90
31133;DHT22;17779;50.942;4.026;2022-11-20T05:03:26;5.30;99.90
31133;DHT22;17779;50.942;4.026;2022-11-20T05:05:55;5.20;99.90
31133;DHT22;17779;50.942;4.026;2022-11-20T05:08:20;5.10;99.90
31133;DHT22;17779;50.942;4.026;2022-11-20T05:10:47;5.00;99.90
31133;DHT22;17779;50.942;4.026;2022-11-20T05:13:12;5.10;99.90
31133;DHT22;17779;50.942;4.026;2022-11-20T05:15:38;5.30;99.90
31133;DHT22;17779;50.942;4.026;2022-11-20T05:18:05;5.30;99.90
31133;DHT22;17779;50.942;4.026;2022-11-20T05:20:30;5.30;99.90
31133;DHT22;17779;50.942;4.026;2022-11-20T05:22:57;5.20;99.90
31133;DHT22;17779;50.942;4.026;2022-11-20T05:25:23;5.00;99.90
31133;DHT22;17779;50.942;4.026;2022-11-20T05:27:50;5.10;99.90
31133;DHT22;17779;50.942;4.026;2022-11-20T05:30:16;5.10;99.90
31133;DHT22;17779;50.942;4.026;2022-11-20T05:32:42;4.90;99.90
31133;DHT22;17779;50.942;4.026;2022-11-20T05:35:07;4.90;99.90
31133;DHT22;17779;50.942;4.026;2022-11-20T05:37:33;5.00;99.90
31133;DHT22;17779;50.942;4.026;2022-11-20T05:39:58;5.10;99.90
31133;DHT22;17779;50.942;4.026;2022-11-20T05:42:24;5.10;99.90
31133;DHT22;17779;50.942;4.026;2022-11-20T05:44:56;5.20;99.90
31133;DHT22;17779;50.942;4.026;2022-11-20T05:47:21;5.20;99.90
31133;DHT22;17779;50.942;4.026;2022-11-20T05:49:47;5.10;99.90
31133;DHT22;17779;50.942;4.026;2022-11-20T05:52:13;5.00;99.90
31133;DHT22;17779;50.942;4.026;2022-11-20T05:54:39;5.00;99.90
31133;DHT22;17779;50.942;4.026;2022-11-20T05:57:05;5.10;99.90
31133;DHT22;17779;50.942;4.026;2022-11-20T05:59:31;5.10;99.90
31133;DHT22;17779;50.942;4.026;2022-11-20T06:01:57;5.10;99.90
31133;DHT22;17779;50.942;4.026;2022-11-20T06:04:22;5.10;99.90
31133;DHT22;17779;50.942;4.026;2022-11-20T06:06:48;5.10;99.90
31133;DHT22;17779;50.942;4.026;2022-11-20T06:09:13;5.20;99.90
31133;DHT22;17779;50.942;4.026;2022-11-20T06:14:08;5.10;99.90
31133;DHT22;17779;50.942;4.026;2022-11-20T06:16:33;5.20;99.90
31133;DHT22;17779;50.942;4.026;2022-11-20T06:19:00;5.30;99.90
31133;DHT22;17779;50.942;4.026;2022-11-20T06:21:27;5.40;99.90
31133;DHT22;17779;50.942;4.026;2022-11-20T06:23:53;5.50;99.90
31133;DHT22;17779;50.942;4.026;2022-11-20T06:26:21;5.40;99.90
31133;DHT22;17779;50.942;4.026;2022-11-20T06:28:47;5.30;99.90
31133;DHT22;17779;50.942;4.026;2022-11-20T06:31:14;5.30;99.90
31133;DHT22;17779;50.942;4.026;2022-11-20T06:33:41;5.30;99.90
31133;DHT22;17779;50.942;4.026;2022-11-20T06:36:06;5.40;99.90
31133;DHT22;17779;50.942;4.026;2022-11-20T06:38:32;5.60;99.90
31133;DHT22;17779;50.942;4.026;2022-11-20T06:40:58;5.60;99.90
31133;DHT22;17779;50.942;4.026;2022-11-20T06:43:23;5.60;99.90
31133;DHT22;17779;50.942;4.026;2022-11-20T06:45:55;5.50;99.90
31133;DHT22;17779;50.942;4.026;2022-11-20T06:48:22;5.40;99.90
31133;DHT22;17779;50.942;4.026;2022-11-20T06:50:48;5.50;99.90
31133;DHT22;17779;50.942;4.026;2022-11-20T06:55:44;5.50;99.90
31133;DHT22;17779;50.942;4.026;2022-11-20T06:58:10;5.40;99.90
31133;DHT22;17779;50.942;4.026;2022-11-20T07:00:36;5.60;99.90
31133;DHT22;17779;50.942;4.026;2022-11-20T07:03:05;5.60;99.90
31133;DHT22;17779;50.942;4.026;2022-11-20T07:05:31;5.60;99.90
31133;DHT22;17779;50.942;4.026;2022-11-20T07:07:57;5.50;99.90
31133;DHT22;17779;50.942;4.026;2022-11-20T07:10:23;5.70;99.90
31133;DHT22;17779;50.942;4.026;2022-11-20T07:12:49;5.60;99.90
31133;DHT22;17779;50.942;4.026;2022-11-20T07:15:15;5.50;99.90
31133;DHT22;17779;50.942;4.026;2022-11-20T07:17:40;5.50;99.90
31133;DHT22;17779;50.942;4.026;2022-11-20T07:20:06;5.60;99.90
31133;DHT22;17779;50.942;4.026;2022-11-20T07:22:32;5.70;99.90
31133;DHT22;17779;50.942;4.026;2022-11-20T07:24:57;5.90;99.90
31133;DHT22;17779;50.942;4.026;2022-11-20T07:27:24;6.00;99.90
31133;DHT22;17779;50.942;4.026;2022-11-20T07:29:50;5.90;99.90
31133;DHT22;17779;50.942;4.026;2022-11-20T07:32:16;5.80;99.90
31133;DHT22;17779;50.942;4.026;2022-11-20T07:34:42;5.60;99.90
31133;DHT22;17779;50.942;4.026;2022-11-20T07:37:08;5.80;99.90
31133;DHT22;17779;50.942;4.026;2022-11-20T07:39:33;5.80;99.90
31133;DHT22;17779;50.942;4.026;2022-11-20T07:41:59;5.90;99.90
31133;DHT22;17779;50.942;4.026;2022-11-20T07:44:25;6.00;99.90
31133;DHT22;17779;50.942;4.026;2022-11-20T07:46:50;5.90;99.90
31133;DHT22;17779;50.942;4.026;2022-11-20T07:49:16;6.00;99.90
31133;DHT22;17779;50.942;4.026;2022-11-20T07:51:41;6.10;99.90
31133;DHT22;17779;50.942;4.026;2022-11-20T07:54:07;6.00;99.90
31133;DHT22;17779;50.942;4.026;2022-11-20T07:56:33;5.80;99.90
31133;DHT22;17779;50.942;4.026;2022-11-20T07:58:59;5.90;99.90
31133;DHT22;17779;50.942;4.026;2022-11-20T08:01:25;5.70;99.90
31133;DHT22;17779;50.942;4.026;2022-11-20T08:03:51;5.80;99.90
31133;DHT22;17779;50.942;4.026;2022-11-20T08:06:17;5.90;99.90
31133;DHT22;17779;50.942;4.026;2022-11-20T08:08:45;5.90;99.90
31133;DHT22;17779;50.942;4.026;2022-11-20T08:11:13;5.90;99.90
31133;DHT22;17779;50.942;4.026;2022-11-20T08:14:00;6.00;99.90
31133;DHT22;17779;50.942;4.026;2022-11-20T08:16:45;6.20;99.90
31133;DHT22;17779;50.942;4.026;2022-11-20T08:19:12;6.10;99.90
31133;DHT22;17779;50.942;4.026;2022-11-20T08:24:07;6.00;99.90
31133;DHT22;17779;50.942;4.026;2022-11-20T08:26:33;6.10;99.90
31133;DHT22;17779;50.942;4.026;2022-11-20T08:29:00;6.10;99.90
31133;DHT22;17779;50.942;4.026;2022-11-20T08:31:27;6.20;99.90
31133;DHT22;17779;50.942;4.026;2022-11-20T08:33:56;6.30;99.90
31133;DHT22;17779;50.942;4.026;2022-11-20T08:36:22;6.30;99.90
31133;DHT22;17779;50.942;4.026;2022-11-20T08:38:49;6.30;99.90
31133;DHT22;17779;50.942;4.026;2022-11-20T08:41:17;6.40;99.90
31133;DHT22;17779;50.942;4.026;2022-11-20T08:43:55;6.30;99.90
31133;DHT22;17779;50.942;4.026;2022-11-20T08:46:34;6.20;99.90
31133;DHT22;17779;50.942;4.026;2022-11-20T08:49:02;6.10;99.90
31133;DHT22;17779;50.942;4.026;2022-11-20T08:51:28;6.30;99.90
31133;DHT22;17779;50.942;4.026;2022-11-20T08:53:55;6.40;99.90
31133;DHT22;17779;50.942;4.026;2022-11-20T08:56:22;6.40;99.90
31133;DHT22;17779;50.942;4.026;2022-11-20T09:01:18;6.30;99.90
31133;DHT22;17779;50.942;4.026;2022-11-20T09:03:46;6.40;99.90
31133;DHT22;17779;50.942;4.026;2022-11-20T09:06:12;6.50;99.90
31133;DHT22;17779;50.942;4.026;2022-11-20T09:08:39;6.50;99.90
31133;DHT22;17779;50.942;4.026;2022-11-20T09:11:05;6.40;99.90
31133;DHT22;17779;50.942;4.026;2022-11-20T09:13:32;6.50;99.90
31133;DHT22;17779;50.942;4.026;2022-11-20T09:16:01;6.70;99.90
31133;DHT22;17779;50.942;4.026;2022-11-20T09:18:27;6.80;99.90
31133;DHT22;17779;50.942;4.026;2022-11-20T09:20:59;6.90;99.90
31133;DHT22;17779;50.942;4.026;2022-11-20T09:23:25;6.80;99.90
31133;DHT22;17779;50.942;4.026;2022-11-20T09:25:52;6.80;99.90
31133;DHT22;17779;50.942;4.026;2022-11-20T09:28:21;6.90;99.90
31133;DHT22;17779;50.942;4.026;2022-11-20T09:30:47;7.10;99.90
31133;DHT22;17779;50.942;4.026;2022-11-20T09:33:12;7.00;99.90
31133;DHT22;17779;50.942;4.026;2022-11-20T09:35:39;7.00;99.90
31133;DHT22;17779;50.942;4.026;2022-11-20T09:38:05;7.00;99.90
31133;DHT22;17779;50.942;4.026;2022-11-20T09:40:31;7.00;99.90
31133;DHT22;17779;50.942;4.026;2022-11-20T09:45:30;6.90;99.90
31133;DHT22;17779;50.942;4.026;2022-11-20T09:56:08;7.40;99.90
31133;DHT22;17779;50.942;4.026;2022-11-20T09:58:41;7.50;99.90
31133;DHT22;17779;50.942;4.026;2022-11-20T10:01:16;7.60;99.90
31133;DHT22;17779;50.942;4.026;2022-11-20T10:04:04;7.70;99.90
31133;DHT22;17779;50.942;4.026;2022-11-20T10:06:33;7.70;99.90
31133;DHT22;17779;50.942;4.026;2022-11-20T10:09:16;7.70;99.90
31133;DHT22;17779;50.942;4.026;2022-11-20T10:11:46;7.80;99.90
31133;DHT22;17779;50.942;4.026;2022-11-20T10:14:20;8.00;99.90
31133;DHT22;17779;50.942;4.026;2022-11-20T10:19:45;8.30;99.90
31133;DHT22;17779;50.942;4.026;2022-11-20T10:25:00;8.70;99.90
31133;DHT22;17779;50.942;4.026;2022-11-20T10:28:02;8.70;99.90
31133;DHT22;17779;50.942;4.026;2022-11-20T10:30:21;8.80;99.90
31133;DHT22;17779;50.942;4.026;2022-11-20T10:33:36;8.80;99.90
31133;DHT22;17779;50.942;4.026;2022-11-20T10:35:41;8.80;99.90
31133;DHT22;17779;50.942;4.026;2022-11-20T10:38:26;8.90;99.90
31133;DHT22;17779;50.942;4.026;2022-11-20T10:41:01;8.90;99.90
31133;DHT22;17779;50.942;4.026;2022-11-20T10:43:46;8.70;99.90
31133;DHT22;17779;50.942;4.026;2022-11-20T10:46:20;9.00;99.90
31133;DHT22;17779;50.942;4.026;2022-11-20T10:48:50;8.90;99.90
31133;DHT22;17779;50.942;4.026;2022-11-20T10:54:13;9.10;99.90
31133;DHT22;17779;50.942;4.026;2022-11-20T10:59:22;9.00;99.90
31133;DHT22;17779;50.942;4.026;2022-11-20T11:01:50;9.00;99.90
31133;DHT22;17779;50.942;4.026;2022-11-20T11:05:04;8.90;99.90
31133;DHT22;17779;50.942;4.026;2022-11-20T11:09:38;8.90;99.90
31133;DHT22;17779;50.942;4.026;2022-11-20T11:12:08;8.80;99.90
31133;DHT22;17779;50.942;4.026;2022-11-20T11:14:44;8.80;99.90
31133;DHT22;17779;50.942;4.026;2022-11-20T11:17:23;8.90;99.90
31133;DHT22;17779;50.942;4.026;2022-11-20T11:19:59;8.80;99.90
31133;DHT22;17779;50.942;4.026;2022-11-20T11:22:24;9.00;99.90
31133;DHT22;17779;50.942;4.026;2022-11-20T11:24:53;8.80;99.90
31133;DHT22;17779;50.942;4.026;2022-11-20T11:27:19;8.70;99.90
31133;DHT22;17779;50.942;4.026;2022-11-20T11:29:46;8.90;99.90
31133;DHT22;17779;50.942;4.026;2022-11-20T11:32:13;9.00;99.90
31133;DHT22;17779;50.942;4.026;2022-11-20T11:34:41;8.90;99.90
31133;DHT22;17779;50.942;4.026;2022-11-20T11:37:16;8.90;99.90
31133;DHT22;17779;50.942;4.026;2022-11-20T11:39:44;8.90;99.90
31133;DHT22;17779;50.942;4.026;2022-11-20T11:42:17;8.90;99.90
31133;DHT22;17779;50.942;4.026;2022-11-20T11:44:57;8.90;99.90
31133;DHT22;17779;50.942;4.026;2022-11-20T11:47:33;8.90;99.90
31133;DHT22;17779;50.942;4.026;2022-11-20T11:58:00;8.50;99.90
31133;DHT22;17779;50.942;4.026;2022-11-20T12:00:31;8.40;99.90
31133;DHT22;17779;50.942;4.026;2022-11-20T12:05:30;8.10;99.90
31133;DHT22;17779;50.942;4.026;2022-11-20T12:10:45;8.00;99.90
31133;DHT22;17779;50.942;4.026;2022-11-20T12:16:01;8.00;99.90
31133;DHT22;17779;50.942;4.026;2022-11-20T12:18:30;7.90;99.90
31133;DHT22;17779;50.942;4.026;2022-11-20T12:31:51;8.10;99.90
31133;DHT22;17779;50.942;4.026;2022-11-20T12:37:17;8.10;99.90
31133;DHT22;17779;50.942;4.026;2022-11-20T12:42:21;8.20;99.90
31133;DHT22;17779;50.942;4.026;2022-11-20T12:45:28;8.20;99.90
31133;DHT22;17779;50.942;4.026;2022-11-20T12:50:28;8.20;99.90
31133;DHT22;17779;50.942;4.026;2022-11-20T12:56:01;8.20;99.90
31133;DHT22;17779;50.942;4.026;2022-11-20T12:58:42;8.20;99.90
31133;DHT22;17779;50.942;4.026;2022-11-20T13:01:23;8.20;99.90
31133;DHT22;17779;50.942;4.026;2022-11-20T13:06:51;8.20;99.90
31133;DHT22;17779;50.942;4.026;2022-11-20T13:14:24;8.20;99.90
31133;DHT22;17779;50.942;4.026;2022-11-20T13:19:22;8.10;99.90
31133;DHT22;17779;50.942;4.026;2022-11-20T13:21:49;8.20;99.90
31133;DHT22;17779;50.942;4.026;2022-11-20T13:26:45;8.30;99.90
31133;DHT22;17779;50.942;4.026;2022-11-20T13:29:12;8.10;99.90
31133;DHT22;17779;50.942;4.026;2022-11-20T13:31:43;8.20;99.90
31133;DHT22;17779;50.942;4.026;2022-11-20T13:34:12;8.20;99.90
31133;DHT22;17779;50.942;4.026;2022-11-20T13:36:48;8.10;99.90
31133;DHT22;17779;50.942;4.026;2022-11-20T13:39:23;8.20;99.90
31133;DHT22;17779;50.942;4.026;2022-11-20T13:42:01;8.10;99.90
31133;DHT22;17779;50.942;4.026;2022-11-20T13:44:33;8.30;99.90
31133;DHT22;17779;50.942;4.026;2022-11-20T13:47:03;8.30;99.90
31133;DHT22;17779;50.942;4.026;2022-11-20T13:49:33;8.30;99.90
31133;DHT22;17779;50.942;4.026;2022-11-20T13:52:25;8.30;99.90
31133;DHT22;17779;50.942;4.026;2022-11-20T13:54:58;8.30;99.90
31133;DHT22;17779;50.942;4.026;2022-11-20T13:59:58;8.30;99.90
31133;DHT22;17779;50.942;4.026;2022-11-20T14:02:26;8.40;99.90
31133;DHT22;17779;50.942;4.026;2022-11-20T14:04:53;8.30;99.90
31133;DHT22;17779;50.942;4.026;2022-11-20T14:07:21;8.30;99.90
31133;DHT22;17779;50.942;4.026;2022-11-20T14:09:52;8.30;99.90
31133;DHT22;17779;50.942;4.026;2022-11-20T14:12:21;8.30;99.90
31133;DHT22;17779;50.942;4.026;2022-11-20T14:14:53;8.30;99.90
31133;DHT22;17779;50.942;4.026;2022-11-20T14:17:23;8.30;99.90
31133;DHT22;17779;50.942;4.026;2022-11-20T14:19:52;8.30;99.90
31133;DHT22;17779;50.942;4.026;2022-11-20T14:22:26;8.30;99.90
31133;DHT22;17779;50.942;4.026;2022-11-20T14:25:07;8.30;99.90
31133;DHT22;17779;50.942;4.026;2022-11-20T14:27:47;8.40;99.90
31133;DHT22;17779;50.942;4.026;2022-11-20T14:30:15;8.40;99.90
31133;DHT22;17779;50.942;4.026;2022-11-20T14:35:10;8.50;99.90
31133;DHT22;17779;50.942;4.026;2022-11-20T14:37:38;8.50;99.90
31133;DHT22;17779;50.942;4.026;2022-11-20T14:46:28;8.70;99.90
31133;DHT22;17779;50.942;4.026;2022-11-20T14:48:37;8.80;99.90
31133;DHT22;17779;50.942;4.026;2022-11-20T14:51:08;8.80;99.90
31133;DHT22;17779;50.942;4.026;2022-11-20T14:53:37;8.90;99.90
31133;DHT22;17779;50.942;4.026;2022-11-20T14:56:03;9.00;99.90
31133;DHT22;17779;50.942;4.026;2022-11-20T15:01:04;9.10;99.90
31133;DHT22;17779;50.942;4.026;2022-11-20T15:03:33;9.10;99.90
31133;DHT22;17779;50.942;4.026;2022-11-20T15:08:29;9.30;99.90
31133;DHT22;17779;50.942;4.026;2022-11-20T15:10:55;9.30;99.90
31133;DHT22;17779;50.942;4.026;2022-11-20T15:13:34;9.30;99.90
31133;DHT22;17779;50.942;4.026;2022-11-20T15:16:03;9.30;99.90
31133;DHT22;17779;50.942;4.026;2022-11-20T15:18:40;9.30;99.90
31133;DHT22;17779;50.942;4.026;2022-11-20T15:21:10;9.30;99.90
31133;DHT22;17779;50.942;4.026;2022-11-20T15:23:38;9.30;99.90
31133;DHT22;17779;50.942;4.026;2022-11-20T15:26:04;9.30;99.90
31133;DHT22;17779;50.942;4.026;2022-11-20T15:28:40;9.30;99.90
31133;DHT22;17779;50.942;4.026;2022-11-20T15:31:11;9.30;99.90
31133;DHT22;17779;50.942;4.026;2022-11-20T15:33:36;9.20;99.90
31133;DHT22;17779;50.942;4.026;2022-11-20T15:36:04;9.20;99.90
31133;DHT22;17779;50.942;4.026;2022-11-20T15:41:01;9.40;99.90
31133;DHT22;17779;50.942;4.026;2022-11-20T15:43:29;9.50;99.90
31133;DHT22;17779;50.942;4.026;2022-11-20T15:46:03;9.70;99.90
31133;DHT22;17779;50.942;4.026;2022-11-20T15:48:30;9.60;99.90
31133;DHT22;17779;50.942;4.026;2022-11-20T15:50:59;9.50;99.90
31133;DHT22;17779;50.942;4.026;2022-11-20T15:53:28;9.40;99.90
31133;DHT22;17779;50.942;4.026;2022-11-20T15:55:54;9.40;99.90
31133;DHT22;17779;50.942;4.026;2022-11-20T15:58:20;9.50;99.90
31133;DHT22;17779;50.942;4.026;2022-11-20T16:00:47;9.50;99.90
31133;DHT22;17779;50.942;4.026;2022-11-20T16:03:14;9.50;99.90
31133;DHT22;17779;50.942;4.026;2022-11-20T16:05:43;9.30;99.90
31133;DHT22;17779;50.942;4.026;2022-11-20T16:08:12;9.20;99.90
31133;DHT22;17779;50.942;4.026;2022-11-20T16:13:13;9.00;99.90
31133;DHT22;17779;50.942;4.026;2022-11-20T16:15:59;9.00;99.90
31133;DHT22;17779;50.942;4.026;2022-11-20T16:18:26;9.00;99.90
31133;DHT22;17779;50.942;4.026;2022-11-20T16:20:55;9.10;99.90
31133;DHT22;17779;50.942;4.026;2022-11-20T16:25:57;9.00;99.90
31133;DHT22;17779;50.942;4.026;2022-11-20T16:28:24;9.00;99.90
31133;DHT22;17779;50.942;4.026;2022-11-20T16:30:50;9.00;99.90
31133;DHT22;17779;50.942;4.026;2022-11-20T16:33:16;8.90;99.90
31133;DHT22;17779;50.942;4.026;2022-11-20T16:35:45;8.90;99.90
31133;DHT22;17779;50.942;4.026;2022-11-20T16:38:10;8.90;99.90
31133;DHT22;17779;50.942;4.026;2022-11-20T16:40:39;8.90;99.90
31133;DHT22;17779;50.942;4.026;2022-11-20T16:43:08;8.80;99.90
31133;DHT22;17779;50.942;4.026;2022-11-20T16:45:41;8.80;99.90
31133;DHT22;17779;50.942;4.026;2022-11-20T16:48:10;8.70;99.90
31133;DHT22;17779;50.942;4.026;2022-11-20T16:50:46;8.70;99.90
31133;DHT22;17779;50.942;4.026;2022-11-20T16:55:44;8.80;99.90
31133;DHT22;17779;50.942;4.026;2022-11-20T16:58:10;8.90;99.90
31133;DHT22;17779;50.942;4.026;2022-11-20T17:00:37;9.00;99.90
31133;DHT22;17779;50.942;4.026;2022-11-20T17:03:03;9.10;99.90
31133;DHT22;17779;50.942;4.026;2022-11-20T17:05:29;9.20;99.90
31133;DHT22;17779;50.942;4.026;2022-11-20T17:07:58;9.20;99.90
31133;DHT22;17779;50.942;4.026;2022-11-20T17:10:24;9.30;99.90
31133;DHT22;17779;50.942;4.026;2022-11-20T17:12:51;9.10;99.90
31133;DHT22;17779;50.942;4.026;2022-11-20T17:15:16;9.00;99.90
31133;DHT22;17779;50.942;4.026;2022-11-20T17:20:13;8.90;99.90
31133;DHT22;17779;50.942;4.026;2022-11-20T17:22:38;8.90;99.90
31133;DHT22;17779;50.942;4.026;2022-11-20T17:25:05;8.90;99.90
31133;DHT22;17779;50.942;4.026;2022-11-20T17:27:32;8.80;99.90
31133;DHT22;17779;50.942;4.026;2022-11-20T17:29:59;8.80;99.90
31133;DHT22;17779;50.942;4.026;2022-11-20T17:32:24;8.70;99.90
31133;DHT22;17779;50.942;4.026;2022-11-20T17:34:50;8.70;99.90
31133;DHT22;17779;50.942;4.026;2022-11-20T17:37:16;8.70;99.90
31133;DHT22;17779;50.942;4.026;2022-11-20T17:39:45;8.70;99.90
31133;DHT22;17779;50.942;4.026;2022-11-20T17:42:15;8.70;99.90
31133;DHT22;17779;50.942;4.026;2022-11-20T17:44:57;8.70;99.90
31133;DHT22;17779;50.942;4.026;2022-11-20T17:47:29;8.80;99.90
31133;DHT22;17779;50.942;4.026;2022-11-20T17:49:57;8.90;99.90
31133;DHT22;17779;50.942;4.026;2022-11-20T17:52:29;8.90;99.90
31133;DHT22;17779;50.942;4.026;2022-11-20T17:54:58;9.00;99.90